Ana Sayfa
METAR-TAF:

METAR-TAF

Havaalanları :

Hemphill County Airport

Canadian, Teksas, Amerika Birleşik Devletleri

Enlem: 35-54N, Boylam: 100-24W, yükseklik: 730 m

Güncel hava durumu gözlemi

Rapor saat 06:55 UTC de 28 dakika önce yapıldı.
Rüzgar kuzeydoğudan 9 kt ve 14 kt'a kadar ani rüzgarlar
Sıcaklık 6°C
Nem 93%
Basınç 1011 hPa
Görüş mesafesi: 16.1 km
1700 ft yükseklikte çok bulutlu

METAR: KHHF 280655Z AUTO 05009G14KT 10SM OVC017 06/05 A2985 RMK AO2 LTG DSNT E T00570045

Saat: 01:23 (07:23 UTC)


TAF: eksik

4.000'den fazla havaalanı için hava durumu gözlemleri ve tahminleri (METAR ve TAF raporları).

Kullanılabilir istasyonlar harita üzerinde sarı ve kırmızı noktalarla gösterilir.

İstasyonun adını görmek için fareyi noktanın üzerinde gezdirin.

Sonrasında hava gözlem ve tahminlerini görmek için tıklayın.

Haritayı değiştirmek için: yaklaştırmak için siyah artı işaretli yeşil düğmeye ve uzaklaştırmak için de eksi işaretli düğmeye hızla tıklayın; bitişik haritalar için yeşil okları kullanın.


METAR-TAF: